sensor_id;sensor_type;location;lat;lon;timestamp;P1;durP1;ratioP1;P2;durP2;ratioP2
17596;SDS011;8917;50.942;6.946;2023-04-30T00:02:18;31.37;;;25.43;;
17596;SDS011;8917;50.942;6.946;2023-04-30T00:04:45;27.67;;;22.67;;
17596;SDS011;8917;50.942;6.946;2023-04-30T00:07:12;25.00;;;20.30;;
17596;SDS011;8917;50.942;6.946;2023-04-30T00:09:41;25.17;;;19.10;;
17596;SDS011;8917;50.942;6.946;2023-04-30T00:12:08;22.13;;;19.40;;
17596;SDS011;8917;50.942;6.946;2023-04-30T00:14:36;20.87;;;18.20;;
17596;SDS011;8917;50.942;6.946;2023-04-30T00:17:03;23.03;;;17.83;;
17596;SDS011;8917;50.942;6.946;2023-04-30T00:19:30;17.77;;;14.83;;
17596;SDS011;8917;50.942;6.946;2023-04-30T00:21:57;18.10;;;15.10;;
17596;SDS011;8917;50.942;6.946;2023-04-30T00:24:25;15.83;;;14.13;;
17596;SDS011;8917;50.942;6.946;2023-04-30T00:26:55;17.90;;;13.77;;
17596;SDS011;8917;50.942;6.946;2023-04-30T00:29:22;19.33;;;14.13;;
17596;SDS011;8917;50.942;6.946;2023-04-30T00:31:49;16.90;;;13.77;;
17596;SDS011;8917;50.942;6.946;2023-04-30T00:34:16;16.70;;;14.23;;
17596;SDS011;8917;50.942;6.946;2023-04-30T00:36:43;16.40;;;13.07;;
17596;SDS011;8917;50.942;6.946;2023-04-30T00:39:10;17.67;;;12.70;;
17596;SDS011;8917;50.942;6.946;2023-04-30T00:41:37;17.40;;;13.43;;
17596;SDS011;8917;50.942;6.946;2023-04-30T00:44:07;13.80;;;12.37;;
17596;SDS011;8917;50.942;6.946;2023-04-30T00:46:34;15.97;;;13.27;;
17596;SDS011;8917;50.942;6.946;2023-04-30T00:49:01;14.97;;;13.40;;
17596;SDS011;8917;50.942;6.946;2023-04-30T00:51:30;15.47;;;13.57;;
17596;SDS011;8917;50.942;6.946;2023-04-30T00:53:58;17.10;;;13.63;;
17596;SDS011;8917;50.942;6.946;2023-04-30T00:56:26;18.73;;;14.50;;
17596;SDS011;8917;50.942;6.946;2023-04-30T00:58:54;15.80;;;13.47;;
17596;SDS011;8917;50.942;6.946;2023-04-30T01:01:23;17.23;;;13.63;;
17596;SDS011;8917;50.942;6.946;2023-04-30T01:03:52;18.37;;;14.03;;
17596;SDS011;8917;50.942;6.946;2023-04-30T01:06:20;16.13;;;13.63;;
17596;SDS011;8917;50.942;6.946;2023-04-30T01:08:47;17.57;;;13.83;;
17596;SDS011;8917;50.942;6.946;2023-04-30T01:11:16;15.73;;;13.30;;
17596;SDS011;8917;50.942;6.946;2023-04-30T01:13:48;14.73;;;13.20;;
17596;SDS011;8917;50.942;6.946;2023-04-30T01:16:18;14.53;;;12.17;;
17596;SDS011;8917;50.942;6.946;2023-04-30T01:18:48;14.20;;;11.83;;
17596;SDS011;8917;50.942;6.946;2023-04-30T01:21:16;12.70;;;11.40;;
17596;SDS011;8917;50.942;6.946;2023-04-30T01:23:54;15.73;;;12.07;;
17596;SDS011;8917;50.942;6.946;2023-04-30T01:26:28;12.63;;;11.33;;
17596;SDS011;8917;50.942;6.946;2023-04-30T01:29:02;14.20;;;11.80;;
17596;SDS011;8917;50.942;6.946;2023-04-30T01:31:30;12.40;;;11.10;;
17596;SDS011;8917;50.942;6.946;2023-04-30T01:33:57;13.10;;;10.97;;
17596;SDS011;8917;50.942;6.946;2023-04-30T01:36:36;12.60;;;11.30;;
17596;SDS011;8917;50.942;6.946;2023-04-30T01:39:19;11.97;;;10.70;;
17596;SDS011;8917;50.942;6.946;2023-04-30T01:41:53;13.00;;;11.13;;
17596;SDS011;8917;50.942;6.946;2023-04-30T01:44:27;14.83;;;11.53;;
17596;SDS011;8917;50.942;6.946;2023-04-30T01:46:57;12.80;;;11.37;;
17596;SDS011;8917;50.942;6.946;2023-04-30T01:49:26;14.00;;;11.47;;
17596;SDS011;8917;50.942;6.946;2023-04-30T01:51:57;21.20;;;18.93;;
17596;SDS011;8917;50.942;6.946;2023-04-30T01:54:29;13.60;;;11.07;;
17596;SDS011;8917;50.942;6.946;2023-04-30T01:57:00;12.70;;;11.37;;
17596;SDS011;8917;50.942;6.946;2023-04-30T01:59:30;12.20;;;10.97;;
17596;SDS011;8917;50.942;6.946;2023-04-30T02:01:58;12.50;;;10.77;;
17596;SDS011;8917;50.942;6.946;2023-04-30T02:04:25;13.63;;;11.30;;
17596;SDS011;8917;50.942;6.946;2023-04-30T02:06:52;11.73;;;10.33;;
17596;SDS011;8917;50.942;6.946;2023-04-30T02:09:20;13.23;;;11.27;;
17596;SDS011;8917;50.942;6.946;2023-04-30T02:11:48;13.33;;;10.43;;
17596;SDS011;8917;50.942;6.946;2023-04-30T02:14:15;13.10;;;10.73;;
17596;SDS011;8917;50.942;6.946;2023-04-30T02:16:44;18.77;;;10.63;;
17596;SDS011;8917;50.942;6.946;2023-04-30T02:19:11;11.80;;;10.33;;
17596;SDS011;8917;50.942;6.946;2023-04-30T02:21:38;14.10;;;10.37;;
17596;SDS011;8917;50.942;6.946;2023-04-30T02:24:05;14.23;;;10.00;;
17596;SDS011;8917;50.942;6.946;2023-04-30T02:26:32;11.90;;;10.70;;
17596;SDS011;8917;50.942;6.946;2023-04-30T02:29:00;12.33;;;9.87;;
17596;SDS011;8917;50.942;6.946;2023-04-30T02:31:27;11.80;;;10.30;;
17596;SDS011;8917;50.942;6.946;2023-04-30T02:33:55;11.40;;;10.23;;
17596;SDS011;8917;50.942;6.946;2023-04-30T02:36:23;10.97;;;9.67;;
17596;SDS011;8917;50.942;6.946;2023-04-30T02:38:50;11.00;;;9.57;;
17596;SDS011;8917;50.942;6.946;2023-04-30T02:41:17;14.30;;;9.60;;
17596;SDS011;8917;50.942;6.946;2023-04-30T02:43:44;11.97;;;9.80;;
17596;SDS011;8917;50.942;6.946;2023-04-30T02:46:11;13.93;;;9.57;;
17596;SDS011;8917;50.942;6.946;2023-04-30T02:48:38;11.37;;;9.53;;
17596;SDS011;8917;50.942;6.946;2023-04-30T02:51:07;11.50;;;10.00;;
17596;SDS011;8917;50.942;6.946;2023-04-30T02:53:34;11.57;;;9.30;;
17596;SDS011;8917;50.942;6.946;2023-04-30T02:56:01;11.03;;;9.80;;
17596;SDS011;8917;50.942;6.946;2023-04-30T02:58:29;13.57;;;10.70;;
17596;SDS011;8917;50.942;6.946;2023-04-30T03:00:56;11.90;;;9.93;;
17596;SDS011;8917;50.942;6.946;2023-04-30T03:03:23;11.17;;;9.87;;
17596;SDS011;8917;50.942;6.946;2023-04-30T03:05:50;11.80;;;9.97;;
17596;SDS011;8917;50.942;6.946;2023-04-30T03:08:22;11.10;;;9.93;;
17596;SDS011;8917;50.942;6.946;2023-04-30T03:10:49;11.40;;;10.00;;
17596;SDS011;8917;50.942;6.946;2023-04-30T03:13:16;13.17;;;10.30;;
17596;SDS011;8917;50.942;6.946;2023-04-30T03:15:43;12.10;;;9.87;;
17596;SDS011;8917;50.942;6.946;2023-04-30T03:18:11;12.70;;;10.33;;
17596;SDS011;8917;50.942;6.946;2023-04-30T03:20:38;14.47;;;10.63;;
17596;SDS011;8917;50.942;6.946;2023-04-30T03:23:05;14.90;;;11.00;;
17596;SDS011;8917;50.942;6.946;2023-04-30T03:25:34;14.57;;;10.73;;
17596;SDS011;8917;50.942;6.946;2023-04-30T03:28:01;12.40;;;10.87;;
17596;SDS011;8917;50.942;6.946;2023-04-30T03:30:28;11.93;;;10.73;;
17596;SDS011;8917;50.942;6.946;2023-04-30T03:32:55;12.73;;;10.97;;
17596;SDS011;8917;50.942;6.946;2023-04-30T03:35:22;13.23;;;11.10;;
17596;SDS011;8917;50.942;6.946;2023-04-30T03:37:49;12.27;;;10.83;;
17596;SDS011;8917;50.942;6.946;2023-04-30T03:40:17;13.80;;;11.13;;
17596;SDS011;8917;50.942;6.946;2023-04-30T03:42:45;12.57;;;11.23;;
17596;SDS011;8917;50.942;6.946;2023-04-30T03:45:13;14.00;;;10.47;;
17596;SDS011;8917;50.942;6.946;2023-04-30T03:47:41;12.13;;;10.47;;
17596;SDS011;8917;50.942;6.946;2023-04-30T03:50:08;12.00;;;10.20;;
17596;SDS011;8917;50.942;6.946;2023-04-30T03:52:35;15.43;;;10.97;;
17596;SDS011;8917;50.942;6.946;2023-04-30T03:55:03;11.17;;;10.07;;
17596;SDS011;8917;50.942;6.946;2023-04-30T03:57:30;12.13;;;10.87;;
17596;SDS011;8917;50.942;6.946;2023-04-30T03:59:59;13.80;;;11.37;;
17596;SDS011;8917;50.942;6.946;2023-04-30T04:02:26;14.30;;;10.73;;
17596;SDS011;8917;50.942;6.946;2023-04-30T04:04:53;13.90;;;11.10;;
17596;SDS011;8917;50.942;6.946;2023-04-30T04:07:20;12.63;;;11.07;;
17596;SDS011;8917;50.942;6.946;2023-04-30T04:09:47;12.73;;;11.43;;
17596;SDS011;8917;50.942;6.946;2023-04-30T04:12:14;17.77;;;11.90;;
17596;SDS011;8917;50.942;6.946;2023-04-30T04:14:42;12.13;;;10.83;;
17596;SDS011;8917;50.942;6.946;2023-04-30T04:17:11;11.90;;;10.50;;
17596;SDS011;8917;50.942;6.946;2023-04-30T04:19:38;12.80;;;10.73;;
17596;SDS011;8917;50.942;6.946;2023-04-30T04:22:05;13.40;;;10.50;;
17596;SDS011;8917;50.942;6.946;2023-04-30T04:24:32;12.43;;;10.60;;
17596;SDS011;8917;50.942;6.946;2023-04-30T04:27:00;13.63;;;10.43;;
17596;SDS011;8917;50.942;6.946;2023-04-30T04:29:28;13.03;;;10.93;;
17596;SDS011;8917;50.942;6.946;2023-04-30T04:31:56;12.20;;;10.83;;
17596;SDS011;8917;50.942;6.946;2023-04-30T04:34:25;12.30;;;10.27;;
17596;SDS011;8917;50.942;6.946;2023-04-30T04:36:52;13.10;;;10.77;;
17596;SDS011;8917;50.942;6.946;2023-04-30T04:39:20;14.57;;;11.37;;
17596;SDS011;8917;50.942;6.946;2023-04-30T04:41:47;11.87;;;10.03;;
17596;SDS011;8917;50.942;6.946;2023-04-30T04:44:14;14.40;;;10.80;;
17596;SDS011;8917;50.942;6.946;2023-04-30T04:46:42;16.63;;;10.77;;
17596;SDS011;8917;50.942;6.946;2023-04-30T04:49:09;12.53;;;11.00;;
17596;SDS011;8917;50.942;6.946;2023-04-30T04:51:41;11.50;;;10.30;;
17596;SDS011;8917;50.942;6.946;2023-04-30T04:54:09;14.90;;;11.10;;
17596;SDS011;8917;50.942;6.946;2023-04-30T04:56:36;13.43;;;10.07;;
17596;SDS011;8917;50.942;6.946;2023-04-30T04:59:03;11.93;;;10.63;;
17596;SDS011;8917;50.942;6.946;2023-04-30T05:01:30;11.80;;;10.17;;
17596;SDS011;8917;50.942;6.946;2023-04-30T05:03:57;14.13;;;10.67;;
17596;SDS011;8917;50.942;6.946;2023-04-30T05:06:25;12.00;;;10.57;;
17596;SDS011;8917;50.942;6.946;2023-04-30T05:08:54;14.80;;;11.07;;
17596;SDS011;8917;50.942;6.946;2023-04-30T05:11:21;12.00;;;10.50;;
17596;SDS011;8917;50.942;6.946;2023-04-30T05:13:48;16.47;;;11.37;;
17596;SDS011;8917;50.942;6.946;2023-04-30T05:16:15;12.50;;;10.77;;
17596;SDS011;8917;50.942;6.946;2023-04-30T05:18:42;12.70;;;11.23;;
17596;SDS011;8917;50.942;6.946;2023-04-30T05:21:09;16.87;;;11.10;;
17596;SDS011;8917;50.942;6.946;2023-04-30T05:23:37;16.83;;;11.97;;
17596;SDS011;8917;50.942;6.946;2023-04-30T05:26:05;17.03;;;12.33;;
17596;SDS011;8917;50.942;6.946;2023-04-30T05:28:32;13.07;;;11.13;;
17596;SDS011;8917;50.942;6.946;2023-04-30T05:31:00;13.23;;;11.67;;
17596;SDS011;8917;50.942;6.946;2023-04-30T05:33:27;12.67;;;11.00;;
17596;SDS011;8917;50.942;6.946;2023-04-30T05:35:54;14.83;;;11.53;;
17596;SDS011;8917;50.942;6.946;2023-04-30T05:38:21;13.47;;;11.10;;
17596;SDS011;8917;50.942;6.946;2023-04-30T05:40:48;15.00;;;10.97;;
17596;SDS011;8917;50.942;6.946;2023-04-30T05:43:17;14.57;;;11.90;;
17596;SDS011;8917;50.942;6.946;2023-04-30T05:45:44;14.60;;;11.30;;
17596;SDS011;8917;50.942;6.946;2023-04-30T05:48:11;14.43;;;11.30;;
17596;SDS011;8917;50.942;6.946;2023-04-30T05:50:38;17.20;;;11.73;;
17596;SDS011;8917;50.942;6.946;2023-04-30T05:53:05;13.73;;;11.60;;
17596;SDS011;8917;50.942;6.946;2023-04-30T05:55:33;14.17;;;11.73;;
17596;SDS011;8917;50.942;6.946;2023-04-30T05:58:00;12.07;;;10.63;;
17596;SDS011;8917;50.942;6.946;2023-04-30T06:00:29;13.17;;;10.87;;
17596;SDS011;8917;50.942;6.946;2023-04-30T06:02:56;17.37;;;11.77;;
17596;SDS011;8917;50.942;6.946;2023-04-30T06:05:23;13.53;;;11.70;;
17596;SDS011;8917;50.942;6.946;2023-04-30T06:07:50;14.40;;;11.13;;
17596;SDS011;8917;50.942;6.946;2023-04-30T06:10:17;14.43;;;10.93;;
17596;SDS011;8917;50.942;6.946;2023-04-30T06:12:45;12.60;;;11.13;;
17596;SDS011;8917;50.942;6.946;2023-04-30T06:15:12;12.77;;;10.73;;
17596;SDS011;8917;50.942;6.946;2023-04-30T06:17:40;12.70;;;11.03;;
17596;SDS011;8917;50.942;6.946;2023-04-30T06:20:08;13.83;;;12.13;;
17596;SDS011;8917;50.942;6.946;2023-04-30T06:22:35;12.93;;;10.93;;
17596;SDS011;8917;50.942;6.946;2023-04-30T06:25:05;15.23;;;11.27;;
17596;SDS011;8917;50.942;6.946;2023-04-30T06:27:33;14.30;;;10.93;;
17596;SDS011;8917;50.942;6.946;2023-04-30T06:30:00;11.90;;;10.53;;
17596;SDS011;8917;50.942;6.946;2023-04-30T06:32:27;16.60;;;12.67;;
17596;SDS011;8917;50.942;6.946;2023-04-30T06:34:56;14.40;;;12.33;;
17596;SDS011;8917;50.942;6.946;2023-04-30T06:37:23;12.70;;;10.63;;
17596;SDS011;8917;50.942;6.946;2023-04-30T06:39:50;13.80;;;11.10;;
17596;SDS011;8917;50.942;6.946;2023-04-30T06:42:17;12.37;;;10.83;;
17596;SDS011;8917;50.942;6.946;2023-04-30T06:44:44;13.60;;;11.10;;
17596;SDS011;8917;50.942;6.946;2023-04-30T06:47:12;12.87;;;11.37;;
17596;SDS011;8917;50.942;6.946;2023-04-30T06:49:39;13.50;;;10.30;;
17596;SDS011;8917;50.942;6.946;2023-04-30T06:52:07;15.43;;;11.80;;
17596;SDS011;8917;50.942;6.946;2023-04-30T06:54:35;13.30;;;11.37;;
17596;SDS011;8917;50.942;6.946;2023-04-30T06:57:02;14.80;;;11.83;;
17596;SDS011;8917;50.942;6.946;2023-04-30T06:59:29;16.30;;;12.03;;
17596;SDS011;8917;50.942;6.946;2023-04-30T07:01:57;14.60;;;11.83;;
17596;SDS011;8917;50.942;6.946;2023-04-30T07:04:24;14.43;;;11.43;;
17596;SDS011;8917;50.942;6.946;2023-04-30T07:06:51;15.93;;;12.20;;
17596;SDS011;8917;50.942;6.946;2023-04-30T07:09:20;15.07;;;12.07;;
17596;SDS011;8917;50.942;6.946;2023-04-30T07:11:47;14.97;;;11.90;;
17596;SDS011;8917;50.942;6.946;2023-04-30T07:14:15;13.43;;;12.03;;
17596;SDS011;8917;50.942;6.946;2023-04-30T07:16:42;14.27;;;12.30;;
17596;SDS011;8917;50.942;6.946;2023-04-30T07:19:10;13.53;;;11.37;;
17596;SDS011;8917;50.942;6.946;2023-04-30T07:21:37;12.50;;;11.20;;
17596;SDS011;8917;50.942;6.946;2023-04-30T07:24:05;14.37;;;12.37;;
17596;SDS011;8917;50.942;6.946;2023-04-30T07:26:33;14.80;;;11.83;;
17596;SDS011;8917;50.942;6.946;2023-04-30T07:29:00;14.77;;;12.20;;
17596;SDS011;8917;50.942;6.946;2023-04-30T07:31:28;17.57;;;13.27;;
17596;SDS011;8917;50.942;6.946;2023-04-30T07:33:55;15.47;;;12.40;;
17596;SDS011;8917;50.942;6.946;2023-04-30T07:36:22;16.57;;;13.00;;
17596;SDS011;8917;50.942;6.946;2023-04-30T07:38:51;16.53;;;12.57;;
17596;SDS011;8917;50.942;6.946;2023-04-30T07:41:18;13.83;;;11.03;;
17596;SDS011;8917;50.942;6.946;2023-04-30T07:43:47;14.07;;;11.47;;
17596;SDS011;8917;50.942;6.946;2023-04-30T07:46:14;15.93;;;12.00;;
17596;SDS011;8917;50.942;6.946;2023-04-30T07:48:41;15.43;;;11.63;;
17596;SDS011;8917;50.942;6.946;2023-04-30T07:51:08;11.80;;;10.60;;
17596;SDS011;8917;50.942;6.946;2023-04-30T07:53:35;15.37;;;10.67;;
17596;SDS011;8917;50.942;6.946;2023-04-30T07:56:03;14.27;;;11.27;;
17596;SDS011;8917;50.942;6.946;2023-04-30T07:58:30;13.47;;;11.83;;
17596;SDS011;8917;50.942;6.946;2023-04-30T08:00:58;27.73;;;21.97;;
17596;SDS011;8917;50.942;6.946;2023-04-30T08:03:26;19.93;;;16.97;;
17596;SDS011;8917;50.942;6.946;2023-04-30T08:05:53;15.33;;;12.27;;
17596;SDS011;8917;50.942;6.946;2023-04-30T08:08:20;13.23;;;11.53;;
17596;SDS011;8917;50.942;6.946;2023-04-30T08:10:47;12.63;;;10.33;;
17596;SDS011;8917;50.942;6.946;2023-04-30T08:13:14;12.20;;;9.87;;
17596;SDS011;8917;50.942;6.946;2023-04-30T08:15:42;13.93;;;9.80;;
17596;SDS011;8917;50.942;6.946;2023-04-30T08:18:10;12.33;;;9.50;;
17596;SDS011;8917;50.942;6.946;2023-04-30T08:20:37;10.80;;;9.60;;
17596;SDS011;8917;50.942;6.946;2023-04-30T08:23:05;12.37;;;10.53;;
17596;SDS011;8917;50.942;6.946;2023-04-30T08:25:32;11.40;;;9.53;;
17596;SDS011;8917;50.942;6.946;2023-04-30T08:28:00;10.83;;;9.37;;
17596;SDS011;8917;50.942;6.946;2023-04-30T08:30:27;11.87;;;9.13;;
17596;SDS011;8917;50.942;6.946;2023-04-30T08:32:54;11.77;;;9.23;;
17596;SDS011;8917;50.942;6.946;2023-04-30T08:35:23;11.27;;;9.00;;
17596;SDS011;8917;50.942;6.946;2023-04-30T08:37:50;11.23;;;9.20;;
17596;SDS011;8917;50.942;6.946;2023-04-30T08:40:18;11.50;;;9.13;;
17596;SDS011;8917;50.942;6.946;2023-04-30T08:42:49;8.93;;;7.67;;
17596;SDS011;8917;50.942;6.946;2023-04-30T08:45:19;10.03;;;9.00;;
17596;SDS011;8917;50.942;6.946;2023-04-30T08:47:48;10.37;;;8.60;;
17596;SDS011;8917;50.942;6.946;2023-04-30T08:50:16;11.93;;;7.97;;
17596;SDS011;8917;50.942;6.946;2023-04-30T08:52:44;11.30;;;7.53;;
17596;SDS011;8917;50.942;6.946;2023-04-30T08:55:11;10.17;;;7.90;;
17596;SDS011;8917;50.942;6.946;2023-04-30T08:57:39;7.80;;;7.00;;
17596;SDS011;8917;50.942;6.946;2023-04-30T09:00:06;8.07;;;6.83;;
17596;SDS011;8917;50.942;6.946;2023-04-30T09:02:34;8.50;;;7.07;;
17596;SDS011;8917;50.942;6.946;2023-04-30T09:05:01;7.43;;;6.17;;
17596;SDS011;8917;50.942;6.946;2023-04-30T09:07:28;5.77;;;5.13;;
17596;SDS011;8917;50.942;6.946;2023-04-30T09:09:59;8.07;;;6.87;;
17596;SDS011;8917;50.942;6.946;2023-04-30T09:12:27;6.93;;;6.10;;
17596;SDS011;8917;50.942;6.946;2023-04-30T09:14:57;7.00;;;5.83;;
17596;SDS011;8917;50.942;6.946;2023-04-30T09:17:25;6.70;;;5.20;;
17596;SDS011;8917;50.942;6.946;2023-04-30T09:19:52;4.97;;;4.57;;
17596;SDS011;8917;50.942;6.946;2023-04-30T09:22:20;6.03;;;4.53;;
17596;SDS011;8917;50.942;6.946;2023-04-30T09:24:48;6.30;;;5.17;;
17596;SDS011;8917;50.942;6.946;2023-04-30T09:27:17;6.47;;;4.50;;
17596;SDS011;8917;50.942;6.946;2023-04-30T09:29:45;6.07;;;4.77;;
17596;SDS011;8917;50.942;6.946;2023-04-30T09:32:12;4.73;;;4.30;;
17596;SDS011;8917;50.942;6.946;2023-04-30T09:34:39;6.37;;;4.93;;
17596;SDS011;8917;50.942;6.946;2023-04-30T09:37:07;4.83;;;4.30;;
17596;SDS011;8917;50.942;6.946;2023-04-30T09:39:45;5.80;;;4.97;;
17596;SDS011;8917;50.942;6.946;2023-04-30T09:42:12;5.60;;;4.70;;
17596;SDS011;8917;50.942;6.946;2023-04-30T09:44:41;5.07;;;4.67;;
17596;SDS011;8917;50.942;6.946;2023-04-30T09:47:11;5.27;;;4.47;;
17596;SDS011;8917;50.942;6.946;2023-04-30T09:49:40;10.33;;;7.23;;
17596;SDS011;8917;50.942;6.946;2023-04-30T09:52:08;4.27;;;2.80;;
17596;SDS011;8917;50.942;6.946;2023-04-30T09:54:37;4.00;;;3.33;;
17596;SDS011;8917;50.942;6.946;2023-04-30T09:57:04;6.10;;;3.33;;
17596;SDS011;8917;50.942;6.946;2023-04-30T09:59:35;4.33;;;3.40;;
17596;SDS011;8917;50.942;6.946;2023-04-30T10:02:05;2.53;;;2.33;;
17596;SDS011;8917;50.942;6.946;2023-04-30T10:04:33;3.47;;;2.73;;
17596;SDS011;8917;50.942;6.946;2023-04-30T10:07:01;3.10;;;2.80;;
17596;SDS011;8917;50.942;6.946;2023-04-30T10:09:31;3.40;;;2.60;;
17596;SDS011;8917;50.942;6.946;2023-04-30T10:11:59;5.23;;;2.87;;
17596;SDS011;8917;50.942;6.946;2023-04-30T10:14:28;3.33;;;2.60;;
17596;SDS011;8917;50.942;6.946;2023-04-30T10:17:00;2.60;;;2.40;;
17596;SDS011;8917;50.942;6.946;2023-04-30T10:19:30;2.60;;;2.40;;
17596;SDS011;8917;50.942;6.946;2023-04-30T10:21:59;2.43;;;2.10;;
17596;SDS011;8917;50.942;6.946;2023-04-30T10:24:27;2.13;;;1.90;;
17596;SDS011;8917;50.942;6.946;2023-04-30T10:26:55;2.27;;;1.93;;
17596;SDS011;8917;50.942;6.946;2023-04-30T10:29:22;1.70;;;1.60;;
17596;SDS011;8917;50.942;6.946;2023-04-30T10:31:50;3.63;;;1.70;;
17596;SDS011;8917;50.942;6.946;2023-04-30T10:34:18;4.27;;;2.27;;
17596;SDS011;8917;50.942;6.946;2023-04-30T10:36:53;1.87;;;1.70;;
17596;SDS011;8917;50.942;6.946;2023-04-30T10:39:21;1.80;;;1.70;;
17596;SDS011;8917;50.942;6.946;2023-04-30T10:41:51;1.70;;;1.60;;
17596;SDS011;8917;50.942;6.946;2023-04-30T10:44:23;1.90;;;1.30;;
17596;SDS011;8917;50.942;6.946;2023-04-30T10:46:57;2.30;;;1.50;;
17596;SDS011;8917;50.942;6.946;2023-04-30T10:49:24;1.67;;;1.50;;
17596;SDS011;8917;50.942;6.946;2023-04-30T10:51:54;1.70;;;1.60;;
17596;SDS011;8917;50.942;6.946;2023-04-30T10:54:23;2.80;;;1.80;;
17596;SDS011;8917;50.942;6.946;2023-04-30T10:56:51;2.03;;;1.43;;
17596;SDS011;8917;50.942;6.946;2023-04-30T10:59:20;1.93;;;1.80;;
17596;SDS011;8917;50.942;6.946;2023-04-30T11:01:54;2.10;;;1.90;;
17596;SDS011;8917;50.942;6.946;2023-04-30T11:04:22;1.60;;;1.50;;
17596;SDS011;8917;50.942;6.946;2023-04-30T11:07:06;2.37;;;2.00;;
17596;SDS011;8917;50.942;6.946;2023-04-30T11:09:34;2.00;;;1.80;;
17596;SDS011;8917;50.942;6.946;2023-04-30T11:12:03;1.77;;;1.60;;
17596;SDS011;8917;50.942;6.946;2023-04-30T11:14:33;1.80;;;1.70;;
17596;SDS011;8917;50.942;6.946;2023-04-30T11:17:00;1.70;;;1.60;;
17596;SDS011;8917;50.942;6.946;2023-04-30T11:19:27;1.63;;;1.40;;
17596;SDS011;8917;50.942;6.946;2023-04-30T11:24:52;1.80;;;1.70;;
17596;SDS011;8917;50.942;6.946;2023-04-30T11:27:20;2.73;;;2.53;;
17596;SDS011;8917;50.942;6.946;2023-04-30T11:29:48;1.97;;;1.50;;
17596;SDS011;8917;50.942;6.946;2023-04-30T11:32:16;2.00;;;1.60;;
17596;SDS011;8917;50.942;6.946;2023-04-30T11:34:44;1.80;;;1.43;;
17596;SDS011;8917;50.942;6.946;2023-04-30T11:37:11;4.57;;;4.17;;
17596;SDS011;8917;50.942;6.946;2023-04-30T11:39:39;1.40;;;1.30;;
17596;SDS011;8917;50.942;6.946;2023-04-30T11:42:14;1.83;;;1.73;;
17596;SDS011;8917;50.942;6.946;2023-04-30T11:44:41;1.70;;;1.60;;
17596;SDS011;8917;50.942;6.946;2023-04-30T11:47:09;2.43;;;1.60;;
17596;SDS011;8917;50.942;6.946;2023-04-30T11:49:36;2.37;;;2.17;;
17596;SDS011;8917;50.942;6.946;2023-04-30T11:52:03;2.73;;;1.30;;
17596;SDS011;8917;50.942;6.946;2023-04-30T11:54:32;1.37;;;1.23;;
17596;SDS011;8917;50.942;6.946;2023-04-30T11:57:00;2.00;;;1.43;;
17596;SDS011;8917;50.942;6.946;2023-04-30T11:59:29;1.63;;;1.53;;
17596;SDS011;8917;50.942;6.946;2023-04-30T12:01:57;1.60;;;1.50;;
17596;SDS011;8917;50.942;6.946;2023-04-30T12:04:24;2.30;;;2.10;;
17596;SDS011;8917;50.942;6.946;2023-04-30T12:06:52;1.80;;;1.60;;
17596;SDS011;8917;50.942;6.946;2023-04-30T12:09:19;2.20;;;1.77;;
17596;SDS011;8917;50.942;6.946;2023-04-30T12:11:46;1.40;;;1.30;;
17596;SDS011;8917;50.942;6.946;2023-04-30T12:14:14;2.67;;;1.50;;
17596;SDS011;8917;50.942;6.946;2023-04-30T12:16:43;1.30;;;1.20;;
17596;SDS011;8917;50.942;6.946;2023-04-30T12:19:13;1.30;;;1.20;;
17596;SDS011;8917;50.942;6.946;2023-04-30T12:21:41;1.83;;;1.30;;
17596;SDS011;8917;50.942;6.946;2023-04-30T12:24:10;1.20;;;0.90;;
17596;SDS011;8917;50.942;6.946;2023-04-30T12:26:38;1.50;;;1.40;;
17596;SDS011;8917;50.942;6.946;2023-04-30T12:29:07;2.00;;;1.83;;
17596;SDS011;8917;50.942;6.946;2023-04-30T12:31:35;1.47;;;1.20;;
17596;SDS011;8917;50.942;6.946;2023-04-30T12:34:04;1.27;;;1.17;;
17596;SDS011;8917;50.942;6.946;2023-04-30T12:36:32;1.23;;;1.17;;
17596;SDS011;8917;50.942;6.946;2023-04-30T12:39:07;1.23;;;1.13;;
17596;SDS011;8917;50.942;6.946;2023-04-30T12:41:35;2.30;;;1.00;;
17596;SDS011;8917;50.942;6.946;2023-04-30T12:44:12;0.90;;;0.90;;
17596;SDS011;8917;50.942;6.946;2023-04-30T12:46:39;1.27;;;1.17;;
17596;SDS011;8917;50.942;6.946;2023-04-30T12:49:08;1.00;;;1.00;;
17596;SDS011;8917;50.942;6.946;2023-04-30T12:51:36;1.40;;;1.30;;
17596;SDS011;8917;50.942;6.946;2023-04-30T12:54:05;1.60;;;1.50;;
17596;SDS011;8917;50.942;6.946;2023-04-30T12:56:32;2.33;;;2.10;;
17596;SDS011;8917;50.942;6.946;2023-04-30T12:58:59;1.70;;;1.60;;
17596;SDS011;8917;50.942;6.946;2023-04-30T13:01:26;1.37;;;1.27;;
17596;SDS011;8917;50.942;6.946;2023-04-30T13:03:53;1.00;;;1.00;;
17596;SDS011;8917;50.942;6.946;2023-04-30T13:06:22;1.43;;;1.00;;
17596;SDS011;8917;50.942;6.946;2023-04-30T13:08:49;1.13;;;1.10;;
17596;SDS011;8917;50.942;6.946;2023-04-30T13:11:16;1.67;;;1.30;;
17596;SDS011;8917;50.942;6.946;2023-04-30T13:13:43;1.30;;;1.20;;
17596;SDS011;8917;50.942;6.946;2023-04-30T13:16:11;1.50;;;1.40;;
17596;SDS011;8917;50.942;6.946;2023-04-30T13:18:38;1.30;;;1.10;;
17596;SDS011;8917;50.942;6.946;2023-04-30T13:21:05;1.13;;;1.10;;
17596;SDS011;8917;50.942;6.946;2023-04-30T13:23:34;1.23;;;1.10;;
17596;SDS011;8917;50.942;6.946;2023-04-30T13:26:01;1.33;;;1.20;;
17596;SDS011;8917;50.942;6.946;2023-04-30T13:28:29;1.40;;;1.30;;
17596;SDS011;8917;50.942;6.946;2023-04-30T13:30:56;1.00;;;1.00;;
17596;SDS011;8917;50.942;6.946;2023-04-30T13:33:23;1.20;;;1.10;;
17596;SDS011;8917;50.942;6.946;2023-04-30T13:35:50;1.10;;;1.10;;
17596;SDS011;8917;50.942;6.946;2023-04-30T13:38:17;2.03;;;1.83;;
17596;SDS011;8917;50.942;6.946;2023-04-30T13:40:46;2.87;;;2.47;;
17596;SDS011;8917;50.942;6.946;2023-04-30T13:43:13;2.00;;;1.27;;
17596;SDS011;8917;50.942;6.946;2023-04-30T13:45:40;1.00;;;1.00;;
17596;SDS011;8917;50.942;6.946;2023-04-30T13:48:08;1.40;;;1.30;;
17596;SDS011;8917;50.942;6.946;2023-04-30T13:50:35;1.40;;;1.20;;
17596;SDS011;8917;50.942;6.946;2023-04-30T13:53:02;1.00;;;1.00;;
17596;SDS011;8917;50.942;6.946;2023-04-30T13:55:29;1.40;;;1.30;;
17596;SDS011;8917;50.942;6.946;2023-04-30T13:57:58;1.53;;;1.43;;
17596;SDS011;8917;50.942;6.946;2023-04-30T14:00:26;1.40;;;1.20;;
17596;SDS011;8917;50.942;6.946;2023-04-30T14:02:53;1.30;;;1.20;;
17596;SDS011;8917;50.942;6.946;2023-04-30T14:05:20;1.20;;;1.10;;
17596;SDS011;8917;50.942;6.946;2023-04-30T14:07:47;1.23;;;1.10;;
17596;SDS011;8917;50.942;6.946;2023-04-30T14:10:15;1.00;;;1.00;;
17596;SDS011;8917;50.942;6.946;2023-04-30T14:12:42;1.30;;;1.00;;
17596;SDS011;8917;50.942;6.946;2023-04-30T14:15:11;1.30;;;1.20;;
17596;SDS011;8917;50.942;6.946;2023-04-30T14:17:38;1.10;;;1.10;;
17596;SDS011;8917;50.942;6.946;2023-04-30T14:20:06;1.10;;;1.10;;
17596;SDS011;8917;50.942;6.946;2023-04-30T14:22:33;2.67;;;2.37;;
17596;SDS011;8917;50.942;6.946;2023-04-30T14:25:02;1.77;;;1.67;;
17596;SDS011;8917;50.942;6.946;2023-04-30T14:27:30;1.97;;;1.80;;
17596;SDS011;8917;50.942;6.946;2023-04-30T14:29:57;2.03;;;1.90;;
17596;SDS011;8917;50.942;6.946;2023-04-30T14:32:25;2.83;;;1.50;;
17596;SDS011;8917;50.942;6.946;2023-04-30T14:34:53;1.30;;;1.20;;
17596;SDS011;8917;50.942;6.946;2023-04-30T14:37:20;1.20;;;1.10;;
17596;SDS011;8917;50.942;6.946;2023-04-30T14:39:47;1.60;;;1.20;;
17596;SDS011;8917;50.942;6.946;2023-04-30T14:42:15;2.93;;;1.50;;
17596;SDS011;8917;50.942;6.946;2023-04-30T14:44:42;1.97;;;1.43;;
17596;SDS011;8917;50.942;6.946;2023-04-30T14:47:09;1.40;;;1.30;;
17596;SDS011;8917;50.942;6.946;2023-04-30T14:49:38;1.30;;;1.20;;
17596;SDS011;8917;50.942;6.946;2023-04-30T14:52:05;1.63;;;1.50;;
17596;SDS011;8917;50.942;6.946;2023-04-30T14:54:33;2.90;;;1.53;;